Time;durP1;ratioP1;P1;durP2;ratioP2;P2;SDS_P1;SDS_P2;PMS_P1;PMS_P2;Temp;Humidity;BMP_temperature;BMP_pressure;BME280_temperature;BME280_humidity;BME280_pressure;Samples;Min_cycle;Max_cycle;Signal;HPM_P1;HPM_P2
2023/01/14 00:02:23;;;;;;;21.33;3.83;;;;;;;-145.18;100.00;46717.03;6122417;23;20046;-70
2023/01/14 00:04:48;;;;;;;23.57;4.03;;;;;;;-145.18;100.00;46720.94;6122979;23;20115;-70
2023/01/14 00:07:13;;;;;;;26.37;4.90;;;;;;;-145.18;100.00;46709.22;6122037;23;20021;-71
2023/01/14 00:09:39;;;;;;;20.33;3.23;;;;;;;-145.18;100.00;46709.22;6123001;23;20029;-71
2023/01/14 00:12:04;;;;;;;27.10;3.90;;;;;;;-145.18;100.00;46711.19;6122679;23;20332;-71
2023/01/14 00:14:31;;;;;;;19.77;2.90;;;;;;;-145.18;100.00;46709.22;6122978;23;20010;-70
2023/01/14 00:16:58;;;;;;;27.47;4.40;;;;;;;-145.18;100.00;46709.22;6122832;23;20317;-71
2023/01/14 00:19:24;;;;;;;26.43;3.93;;;;;;;-145.18;100.00;46705.31;6122710;23;20232;-71
2023/01/14 00:21:51;;;;;;;23.50;2.67;;;;;;;-145.18;100.00;46707.28;6122498;23;20251;-71
2023/01/14 00:24:18;;;;;;;25.27;3.53;;;;;;;-145.18;100.00;46709.22;6122855;23;20233;-70
2023/01/14 00:26:45;;;;;;;26.17;3.20;;;;;;;-145.18;100.00;46707.28;6122909;23;20232;-70
2023/01/14 00:29:26;;;;;;;18.93;3.20;;;;;;;-145.18;100.00;46705.31;6122785;23;20235;-70
2023/01/14 00:31:56;;;;;;;22.07;3.27;;;;;;;-145.18;100.00;46699.47;6122766;23;20247;-70
2023/01/14 00:34:24;;;;;;;26.67;4.70;;;;;;;-145.18;100.00;46695.56;6122685;23;20713;-70
2023/01/14 00:36:50;;;;;;;21.07;3.30;;;;;;;-145.18;100.00;46687.75;6122602;23;20236;-70
2023/01/14 00:39:16;;;;;;;24.77;3.53;;;;;;;-145.18;100.00;46677.97;6122830;23;20232;-70
2023/01/14 00:41:41;;;;;;;29.40;4.50;;;;;;;-145.18;100.00;46676.03;6123332;23;20041;-70
2023/01/14 00:44:07;;;;;;;23.47;3.37;;;;;;;-145.18;100.00;46677.97;6124810;23;20064;-70
2023/01/14 00:46:34;;;;;;;19.93;4.30;;;;;;;-145.18;100.00;46687.75;6124546;23;20041;-71
2023/01/14 00:49:02;;;;;;;23.07;3.93;;;;;;;-145.18;100.00;46699.47;6124948;23;20002;-70
2023/01/14 00:51:28;;;;;;;21.43;3.20;;;;;;;-145.18;100.00;46705.31;6124368;23;20255;-70
2023/01/14 00:53:54;;;;;;;26.67;4.60;;;;;;;-145.18;100.00;46709.22;6124945;23;20259;-70
2023/01/14 00:56:21;;;;;;;18.10;3.30;;;;;;;-145.18;100.00;46724.84;6124465;23;20232;-70
2023/01/14 00:58:47;;;;;;;25.37;5.87;;;;;;;-145.18;100.00;46728.75;6124923;23;20700;-70
2023/01/14 01:01:13;;;;;;;37.43;5.83;;;;;;;-145.18;100.00;46728.75;6123857;23;20256;-70
2023/01/14 01:03:44;;;;;;;34.00;5.37;;;;;;;-145.18;100.00;46734.63;6124973;23;20192;-70
2023/01/14 01:06:11;;;;;;;27.50;3.73;;;;;;;-145.18;100.00;46738.53;6124116;23;20255;-70
2023/01/14 01:08:37;;;;;;;24.83;5.33;;;;;;;-145.18;100.00;46732.66;6123141;23;20720;-70
2023/01/14 01:11:03;;;;;;;22.83;5.10;;;;;;;-145.18;100.00;46736.56;6124631;23;20232;-70
2023/01/14 01:13:29;;;;;;;30.30;5.90;;;;;;;-145.18;100.00;46728.75;6123892;23;20069;-71
2023/01/14 01:15:59;;;;;;;29.63;5.27;;;;;;;-145.18;100.00;46740.47;6124628;23;20233;-70
2023/01/14 01:18:25;;;;;;;27.37;4.50;;;;;;;-145.18;100.00;46732.66;6124185;23;20662;-70
2023/01/14 01:20:59;;;;;;;30.90;5.67;;;;;;;-145.18;100.00;46736.56;6124423;23;20311;-70
2023/01/14 01:23:24;;;;;;;23.63;4.70;;;;;;;-145.18;100.00;46732.66;6123956;23;20092;-70
2023/01/14 01:25:58;;;;;;;30.23;5.10;;;;;;;-145.18;100.00;46728.75;6124400;23;20276;-70
2023/01/14 01:28:23;;;;;;;31.90;5.33;;;;;;;-145.18;100.00;46728.75;6123943;23;19998;-70
2023/01/14 01:30:49;;;;;;;28.53;4.97;;;;;;;-145.18;100.00;46736.56;6124544;23;20243;-71
2023/01/14 01:33:14;;;;;;;22.10;3.60;;;;;;;-145.18;100.00;46734.63;6123892;23;20012;-71
2023/01/14 01:35:39;;;;;;;25.87;4.47;;;;;;;-145.18;100.00;46734.63;6124197;23;20494;-71
2023/01/14 01:38:05;;;;;;;31.43;5.70;;;;;;;-145.18;100.00;46736.56;6124635;23;20018;-71
2023/01/14 01:40:30;;;;;;;36.90;5.93;;;;;;;-145.18;100.00;46736.56;6124207;23;20419;-70
2023/01/14 01:42:56;;;;;;;27.00;4.00;;;;;;;-145.18;100.00;46728.75;6124235;23;20002;-71
2023/01/14 01:45:42;;;;;;;28.57;4.43;;;;;;;-145.18;100.00;46740.47;6124373;23;20499;-70
2023/01/14 01:48:21;;;;;;;28.77;4.33;;;;;;;-145.18;100.00;46734.63;6124411;23;20005;-71
2023/01/14 01:50:52;;;;;;;31.77;3.83;;;;;;;-145.18;100.00;46728.75;6124244;23;20283;-71
2023/01/14 01:53:18;;;;;;;28.93;4.00;;;;;;;-145.18;100.00;46734.63;6123509;23;20228;-71
2023/01/14 01:55:51;;;;;;;24.90;3.20;;;;;;;-145.18;100.00;46734.63;6124302;23;20323;-71
2023/01/14 01:58:17;;;;;;;19.60;3.63;;;;;;;-145.18;100.00;46736.56;6123424;23;20236;-71
2023/01/14 02:00:42;;;;;;;30.50;3.67;;;;;;;-145.18;100.00;46732.66;6124263;23;20327;-71
2023/01/14 02:03:18;;;;;;;21.70;4.33;;;;;;;-145.18;100.00;46734.63;6124052;23;20013;-71
2023/01/14 02:05:45;;;;;;;27.83;3.63;;;;;;;-145.18;100.00;46732.66;6126780;23;20044;-71
2023/01/14 02:08:11;;;;;;;21.27;3.70;;;;;;;-145.18;100.00;46728.75;6123709;23;20286;-70
2023/01/14 02:10:56;;;;;;;31.27;3.73;;;;;;;-145.18;100.00;46728.75;6123966;23;20236;-71
2023/01/14 02:13:50;;;;;;;30.10;5.03;;;;;;;-145.18;100.00;46734.63;6123779;23;20009;-71
2023/01/14 02:16:49;;;;;;;31.33;4.13;;;;;;;-145.18;100.00;46724.84;6123778;23;20225;-71
2023/01/14 02:19:26;;;;;;;33.47;3.97;;;;;;;-145.18;100.00;46732.66;6123644;23;20296;-71
2023/01/14 02:22:30;;;;;;;32.83;4.87;;;;;;;-145.18;100.00;46726.81;6121846;23;20689;-71
2023/01/14 02:25:33;;;;;;;29.37;5.37;;;;;;;-145.18;100.00;46734.63;6124246;23;20302;-70
2023/01/14 02:28:12;;;;;;;28.50;3.80;;;;;;;-145.18;100.00;46724.84;6050005;23;20237;-71
2023/01/14 02:31:04;;;;;;;22.27;4.20;;;;;;;-145.18;100.00;46722.91;6123864;23;20299;-70
2023/01/14 02:33:43;;;;;;;34.67;4.53;;;;;;;-145.18;100.00;46732.66;6083548;23;20413;-70
2023/01/14 02:36:27;;;;;;;33.60;5.10;;;;;;;-145.18;100.00;46726.81;6124080;23;20219;-70
2023/01/14 02:39:06;;;;;;;28.10;5.00;;;;;;;-145.18;100.00;46728.75;6124041;23;20709;-71
2023/01/14 02:44:31;;;;;;;33.60;4.70;;;;;;;-145.18;100.00;46726.81;6123435;23;20295;-70
2023/01/14 02:47:00;;;;;;;26.73;4.93;;;;;;;-145.18;100.00;46726.81;6123598;23;20229;-71
2023/01/14 02:49:30;;;;;;;35.60;4.83;;;;;;;-145.18;100.00;46728.75;6123495;23;20280;-71
2023/01/14 02:51:56;;;;;;;30.07;5.17;;;;;;;-145.18;100.00;46720.94;6123427;23;20223;-71
2023/01/14 02:54:21;;;;;;;23.70;5.03;;;;;;;-145.18;100.00;46724.84;6122151;23;20232;-71
2023/01/14 02:56:48;;;;;;;33.57;4.27;;;;;;;-145.18;100.00;46726.81;6123026;23;20319;-70
2023/01/14 02:59:51;;;;;;;32.93;5.47;;;;;;;-145.18;100.00;46719.00;6123588;23;20057;-70
2023/01/14 03:02:17;;;;;;;34.90;4.40;;;;;;;-145.18;100.00;46724.84;6123056;23;20673;-72
2023/01/14 03:04:57;;;;;;;37.83;6.43;;;;;;;-145.18;100.00;46724.84;6178437;23;20286;-71
2023/01/14 03:07:38;;;;;;;38.23;6.00;;;;;;;-145.18;100.00;46724.84;6182286;23;20071;-71
2023/01/14 03:10:06;;;;;;;40.97;5.07;;;;;;;-145.18;100.00;46726.81;6182321;23;20227;-72
2023/01/14 03:12:54;;;;;;;45.17;7.73;;;;;;;-145.18;100.00;46720.94;6182397;23;20289;-72
2023/01/14 03:15:36;;;;;;;36.90;5.97;;;;;;;-145.18;100.00;46720.94;6182621;23;20223;-72
2023/01/14 03:18:14;;;;;;;40.07;7.13;;;;;;;-145.18;100.00;46720.94;6181973;23;20593;-72
2023/01/14 03:20:42;;;;;;;43.47;7.27;;;;;;;-145.18;100.00;46717.03;6182631;23;20544;-72
2023/01/14 03:23:15;;;;;;;33.30;5.80;;;;;;;-145.18;100.00;46720.94;6182320;23;20251;-72
2023/01/14 03:25:44;;;;;;;42.30;6.20;;;;;;;-145.18;100.00;46717.03;6182747;23;20227;-72
2023/01/14 03:28:15;;;;;;;36.90;7.10;;;;;;;-145.18;100.00;46717.03;6182427;23;20299;-72
2023/01/14 03:30:45;;;;;;;46.33;6.60;;;;;;;-145.18;100.00;46722.91;6182444;23;20898;-72
2023/01/14 03:33:18;;;;;;;24.00;4.00;;;;;;;-145.18;100.00;46717.03;6182524;23;20253;-72
2023/01/14 03:35:47;;;;;;;42.33;7.40;;;;;;;-145.18;100.00;46715.09;6182709;23;20227;-72
2023/01/14 03:38:18;;;;;;;48.13;6.37;;;;;;;-145.18;100.00;46720.94;6182130;23;20568;-72
2023/01/14 03:40:47;;;;;;;37.23;4.80;;;;;;;-145.18;100.00;46717.03;6182254;23;20222;-72
2023/01/14 03:43:27;;;;;;;30.37;4.97;;;;;;;-145.18;100.00;46719.00;6182135;23;20684;-72
2023/01/14 03:45:54;;;;;;;34.63;6.13;;;;;;;-145.18;100.00;46717.03;6182271;23;20227;-72
2023/01/14 03:48:20;;;;;;;47.23;5.27;;;;;;;-145.18;100.00;46719.00;6155731;23;20223;-72
2023/01/14 03:50:48;;;;;;;37.07;5.83;;;;;;;-145.18;100.00;46707.28;6182696;23;20233;-72
2023/01/14 03:53:27;;;;;;;43.27;6.33;;;;;;;-145.18;100.00;46715.09;6181901;23;19997;-72
2023/01/14 03:56:11;;;;;;;52.20;6.77;;;;;;;-145.18;100.00;46707.28;6182137;23;20274;-72
2023/01/14 03:58:45;;;;;;;43.57;5.13;;;;;;;-145.18;100.00;46719.00;6182102;23;20219;-72
2023/01/14 04:01:16;;;;;;;39.67;6.00;;;;;;;-145.18;100.00;46707.28;6182474;23;20286;-72
2023/01/14 04:03:42;;;;;;;37.07;5.43;;;;;;;-145.18;100.00;46719.00;6181690;23;20321;-72
2023/01/14 04:06:09;;;;;;;34.13;5.27;;;;;;;-145.18;100.00;46720.94;6182429;23;20237;-72
2023/01/14 04:08:35;;;;;;;37.80;5.07;;;;;;;-145.18;100.00;46720.94;6182438;23;20237;-72
2023/01/14 04:11:00;;;;;;;46.80;6.10;;;;;;;-145.18;100.00;46707.28;6181930;23;20688;-72
2023/01/14 04:16:10;;;;;;;42.47;6.33;;;;;;;-145.18;100.00;46707.28;6182234;23;20019;-72
2023/01/14 04:18:35;;;;;;;54.47;7.83;;;;;;;-145.18;100.00;46705.31;6181916;23;20812;-72
2023/01/14 04:21:01;;;;;;;44.30;5.27;;;;;;;-145.18;100.00;46711.19;6182241;23;20005;-72
2023/01/14 04:23:26;;;;;;;34.30;5.50;;;;;;;-145.18;100.00;46703.38;6181462;23;20013;-72
2023/01/14 04:25:58;;;;;;;34.30;4.77;;;;;;;-145.18;100.00;46713.13;6181982;23;20390;-72
2023/01/14 04:28:24;;;;;;;42.30;5.77;;;;;;;-145.18;100.00;46703.38;6182034;23;19997;-72
2023/01/14 04:30:50;;;;;;;31.60;4.30;;;;;;;-145.18;100.00;46703.38;6181853;23;20612;-72
2023/01/14 04:33:15;;;;;;;42.90;6.70;;;;;;;-145.18;100.00;46711.19;6181809;23;20485;-72
2023/01/14 04:35:44;;;;;;;39.17;4.87;;;;;;;-145.18;100.00;46703.38;6181851;23;20009;-72
2023/01/14 04:38:09;;;;;;;43.27;4.70;;;;;;;-145.18;100.00;46707.28;6182097;23;20094;-72
2023/01/14 04:40:35;;;;;;;34.30;5.80;;;;;;;-145.18;100.00;46705.31;6182218;23;20604;-71
2023/01/14 04:43:00;;;;;;;26.13;4.47;;;;;;;-145.18;100.00;46715.09;6181376;23;20013;-72
2023/01/14 04:45:25;;;;;;;26.10;3.83;;;;;;;-145.18;100.00;46709.22;6182209;23;20060;-72
2023/01/14 04:47:51;;;;;;;26.20;3.93;;;;;;;-145.18;100.00;46711.19;6181731;23;20438;-71
2023/01/14 04:50:32;;;;;;;40.67;4.30;;;;;;;-145.18;100.00;46707.28;6182168;23;20032;-71
2023/01/14 04:53:09;;;;;;;25.53;3.67;;;;;;;-145.18;100.00;46703.38;6181665;23;20017;-72
2023/01/14 04:55:38;;;;;;;34.57;4.40;;;;;;;-145.18;100.00;46705.31;6181865;23;20245;-72
2023/01/14 04:58:06;;;;;;;31.33;4.53;;;;;;;-145.18;100.00;46717.03;6181929;23;20259;-71
2023/01/14 05:00:32;;;;;;;35.60;5.97;;;;;;;-145.18;100.00;46717.03;6182132;23;20783;-71
2023/01/14 05:02:57;;;;;;;36.00;3.50;;;;;;;-145.18;100.00;46701.41;6181206;23;20267;-71
2023/01/14 05:05:23;;;;;;;30.10;3.70;;;;;;;-145.18;100.00;46703.38;6181784;23;20312;-71
2023/01/14 05:07:48;;;;;;;31.27;3.83;;;;;;;-145.18;100.00;46697.50;6181790;23;20006;-71
2023/01/14 05:10:15;;;;;;;32.53;4.00;;;;;;;-145.18;100.00;46701.41;6182213;23;20013;-72
2023/01/14 05:12:55;;;;;;;36.40;5.03;;;;;;;-145.18;100.00;46711.19;6181375;23;20009;-72
2023/01/14 05:15:25;;;;;;;23.00;3.17;;;;;;;-145.18;100.00;46713.13;6182341;23;20230;-72
2023/01/14 05:17:50;;;;;;;30.93;4.93;;;;;;;-145.18;100.00;46711.19;6181431;23;20219;-72
2023/01/14 05:20:16;;;;;;;29.30;3.27;;;;;;;-145.18;100.00;46713.13;6182204;23;20278;-71
2023/01/14 05:22:41;;;;;;;18.07;4.03;;;;;;;-145.18;100.00;46703.38;6181472;23;20104;-72
2023/01/14 05:25:07;;;;;;;33.30;3.83;;;;;;;-145.18;100.00;46717.03;6182138;23;20032;-72
2023/01/14 05:27:33;;;;;;;27.90;4.10;;;;;;;-145.18;100.00;46715.09;6181530;23;20493;-72
2023/01/14 05:29:59;;;;;;;38.87;4.43;;;;;;;-145.18;100.00;46713.13;6183156;23;20009;-72
2023/01/14 05:32:24;;;;;;;27.13;4.30;;;;;;;-145.18;100.00;46719.00;6183482;23;20316;-72
2023/01/14 05:34:49;;;;;;;33.23;4.60;;;;;;;-145.18;100.00;46717.03;6182877;23;20389;-71
2023/01/14 05:37:15;;;;;;;26.20;3.43;;;;;;;-145.18;100.00;46719.00;6182946;23;20091;-72
2023/01/14 05:39:40;;;;;;;39.90;5.77;;;;;;;-145.18;100.00;46705.31;6180346;23;20013;-72
2023/01/14 05:47:33;;;;;;;21.33;4.27;;;;;;;-145.18;100.00;46717.03;6182567;23;20234;-72
2023/01/14 05:49:59;;;;;;;29.77;4.30;;;;;;;-145.18;100.00;46717.03;6182845;23;20684;-72
2023/01/14 05:52:24;;;;;;;28.67;4.03;;;;;;;-145.18;100.00;46715.09;6182932;23;20456;-72
2023/01/14 05:54:50;;;;;;;29.53;3.67;;;;;;;-145.18;100.00;46719.00;6183154;23;20013;-72
2023/01/14 05:57:15;;;;;;;26.97;3.50;;;;;;;-145.18;100.00;46717.03;6156216;23;20013;-72
2023/01/14 05:59:41;;;;;;;23.10;3.30;;;;;;;-145.18;100.00;46717.03;6182536;23;20033;-72
2023/01/14 06:07:37;;;;;;;22.97;3.43;;;;;;;-145.18;100.00;46719.00;6183163;23;19927;-72
2023/01/14 06:10:03;;;;;;;25.07;3.43;;;;;;;-145.18;100.00;46717.03;6183070;23;20541;-72
2023/01/14 06:12:57;;;;;;;24.73;3.60;;;;;;;-145.18;100.00;46717.03;6183093;23;20096;-72
2023/01/14 06:15:20;;;;;;;23.47;4.13;;;;;;;-145.18;100.00;46720.94;6183087;23;20227;-72
2023/01/14 06:17:46;;;;;;;34.47;4.10;;;;;;;-145.18;100.00;46720.94;6182610;23;20242;-72
2023/01/14 06:20:12;;;;;;;43.40;4.83;;;;;;;-145.18;100.00;46715.09;6183264;23;20446;-72
2023/01/14 06:22:38;;;;;;;23.67;3.57;;;;;;;-145.18;100.00;46720.94;6182982;23;20251;-72
2023/01/14 06:25:04;;;;;;;27.10;4.87;;;;;;;-145.18;100.00;46720.94;6156904;23;20309;-72
2023/01/14 06:27:29;;;;;;;27.17;4.03;;;;;;;-145.18;100.00;46720.94;6182594;23;20530;-71
2023/01/14 06:29:55;;;;;;;24.90;2.87;;;;;;;-145.18;100.00;46717.03;6182604;23;20108;-72
2023/01/14 06:32:20;;;;;;;29.10;3.23;;;;;;;-145.18;100.00;46717.03;6182706;23;20063;-72
2023/01/14 06:34:45;;;;;;;22.43;2.37;;;;;;;-145.18;100.00;46720.94;6181802;23;20016;-72
2023/01/14 06:37:11;;;;;;;29.60;3.37;;;;;;;-145.18;100.00;46720.94;6182759;23;20037;-72
2023/01/14 06:39:36;;;;;;;28.33;3.97;;;;;;;-145.18;100.00;46720.94;6182556;23;20370;-72
2023/01/14 06:42:02;;;;;;;32.87;3.47;;;;;;;-145.18;100.00;46715.09;6182683;23;20016;-72
2023/01/14 06:44:27;;;;;;;27.37;3.83;;;;;;;-145.18;100.00;46722.91;6182982;23;20087;-71
2023/01/14 06:46:54;;;;;;;36.90;3.87;;;;;;;-145.18;100.00;46719.00;6182765;23;20465;-72
2023/01/14 06:49:20;;;;;;;20.37;3.67;;;;;;;-145.18;100.00;46717.03;6183043;23;20044;-72
2023/01/14 06:51:45;;;;;;;31.33;3.63;;;;;;;-145.18;100.00;46717.03;6182377;23;20270;-72
2023/01/14 06:54:12;;;;;;;27.70;3.77;;;;;;;-145.18;100.00;46717.03;6182680;23;20017;-71
2023/01/14 06:56:37;;;;;;;28.23;3.20;;;;;;;-145.18;100.00;46719.00;6182801;23;20350;-71
2023/01/14 06:59:03;;;;;;;24.63;3.93;;;;;;;-145.18;100.00;46719.00;6181939;23;20286;-72
2023/01/14 07:01:28;;;;;;;33.63;5.70;;;;;;;-145.18;100.00;46715.09;6182456;23;20005;-72
2023/01/14 07:03:53;;;;;;;24.63;3.30;;;;;;;-145.18;100.00;46715.09;6155535;23;20020;-72
2023/01/14 07:06:19;;;;;;;19.47;2.73;;;;;;;-145.18;100.00;46719.00;6156926;23;20135;-72
2023/01/14 07:08:45;;;;;;;26.03;4.70;;;;;;;-145.18;100.00;46717.03;6182309;23;20008;-72
2023/01/14 07:11:12;;;;;;;23.60;4.17;;;;;;;-145.18;100.00;46707.28;6182757;23;20048;-72
2023/01/14 07:13:37;;;;;;;34.33;4.40;;;;;;;-145.18;100.00;46715.09;6181798;23;20413;-72
2023/01/14 07:16:03;;;;;;;25.20;3.47;;;;;;;-145.18;100.00;46699.47;6182416;23;20231;-72
2023/01/14 07:18:28;;;;;;;28.33;4.50;;;;;;;-145.18;100.00;46715.09;6182220;23;20005;-72
2023/01/14 07:20:58;;;;;;;26.43;4.17;;;;;;;-145.18;100.00;46707.28;6179926;23;20354;-72
2023/01/14 07:23:24;;;;;;;20.80;3.33;;;;;;;-145.18;100.00;46707.28;6177442;23;20316;-72
2023/01/14 07:25:55;;;;;;;38.53;5.83;;;;;;;-145.18;100.00;46713.13;6182054;23;20230;-72
2023/01/14 07:28:21;;;;;;;30.83;3.90;;;;;;;-145.18;100.00;46707.28;6181816;23;20234;-72
2023/01/14 07:30:48;;;;;;;29.40;3.50;;;;;;;-145.18;100.00;46715.09;6182112;23;20235;-72
2023/01/14 07:33:13;;;;;;;33.00;3.73;;;;;;;-145.18;100.00;46701.41;6180546;23;20666;-72
2023/01/14 07:35:39;;;;;;;23.60;3.63;;;;;;;-145.18;100.00;46705.31;6180909;23;20255;-72
2023/01/14 07:38:04;;;;;;;26.03;3.70;;;;;;;-145.18;100.00;46695.56;6180638;23;20035;-72
2023/01/14 07:40:29;;;;;;;30.50;4.53;;;;;;;-145.18;100.00;46701.41;6154470;23;20013;-72
2023/01/14 07:42:56;;;;;;;24.57;4.53;;;;;;;-145.18;100.00;46707.28;6180182;23;20064;-72
2023/01/14 07:45:22;;;;;;;21.43;4.43;;;;;;;-145.18;100.00;46693.59;6180947;23;20005;-72
2023/01/14 07:47:47;;;;;;;23.83;4.03;;;;;;;-145.18;100.00;46693.59;6180338;23;20329;-72
2023/01/14 07:50:13;;;;;;;18.57;4.03;;;;;;;-145.18;100.00;46693.59;6174065;23;20277;-72
2023/01/14 07:52:38;;;;;;;28.13;6.50;;;;;;;-145.18;100.00;46691.66;6179868;23;20009;-72
2023/01/14 07:55:04;;;;;;;22.83;3.73;;;;;;;-145.18;100.00;46701.41;6180447;23;20032;-72
2023/01/14 07:57:29;;;;;;;20.90;4.20;;;;;;;-145.18;100.00;46683.84;6154233;23;20020;-72
2023/01/14 07:59:55;;;;;;;20.57;3.53;;;;;;;-145.18;100.00;46709.22;6180256;23;20010;-72
2023/01/14 08:02:20;;;;;;;23.40;4.47;;;;;;;-145.18;100.00;46689.69;6180602;23;20036;-72
2023/01/14 08:04:45;;;;;;;16.67;3.90;;;;;;;-145.18;100.00;46691.66;6180335;23;20016;-72
2023/01/14 08:07:11;;;;;;;16.33;4.40;;;;;;;-145.18;100.00;46683.84;6180929;23;20037;-72
2023/01/14 08:09:36;;;;;;;14.20;3.70;;;;;;;-145.18;100.00;46683.84;6154086;23;20354;-72
2023/01/14 08:12:02;;;;;;;20.87;4.90;;;;;;;-145.18;100.00;46689.69;6180336;23;20005;-72
2023/01/14 08:14:28;;;;;;;19.07;5.07;;;;;;;-145.18;100.00;46683.84;6180579;23;20079;-71
2023/01/14 08:16:53;;;;;;;20.80;4.40;;;;;;;-145.18;100.00;46687.75;6180356;23;20784;-71
2023/01/14 08:19:19;;;;;;;16.13;4.17;;;;;;;-145.18;100.00;46681.88;6180452;23;20016;-72
2023/01/14 08:21:44;;;;;;;13.27;4.43;;;;;;;-145.18;100.00;46687.75;6180361;23;20005;-72
2023/01/14 08:24:10;;;;;;;13.93;4.23;;;;;;;-145.18;100.00;46681.88;6180155;23;20017;-71
2023/01/14 08:26:35;;;;;;;18.20;4.17;;;;;;;-145.18;100.00;46687.75;6180233;23;20071;-72
2023/01/14 08:29:01;;;;;;;10.07;4.23;;;;;;;-145.18;100.00;46683.84;6179967;23;20065;-72
2023/01/14 08:31:26;;;;;;;18.37;4.33;;;;;;;-145.18;100.00;46685.78;6155361;23;20009;-71
2023/01/14 08:33:52;;;;;;;14.53;4.90;;;;;;;-145.18;100.00;46683.84;6181249;23;20469;-72
2023/01/14 08:36:18;;;;;;;17.73;4.70;;;;;;;-145.18;100.00;46687.75;6181690;23;20029;-71
2023/01/14 08:38:49;;;;;;;14.40;4.20;;;;;;;-145.18;100.00;46685.78;6181054;23;20231;-71
2023/01/14 08:41:16;;;;;;;15.73;5.60;;;;;;;-145.18;100.00;46677.97;6181553;23;20430;-72
2023/01/14 08:43:42;;;;;;;13.73;5.87;;;;;;;-145.18;100.00;46687.75;6180798;23;20278;-72
2023/01/14 08:46:10;;;;;;;13.60;4.63;;;;;;;-145.18;100.00;46685.78;6181714;23;20231;-72
2023/01/14 08:48:36;;;;;;;14.07;5.00;;;;;;;-145.18;100.00;46691.66;6181092;23;20227;-72
2023/01/14 08:51:04;;;;;;;15.07;4.70;;;;;;;-145.18;100.00;46681.88;6181768;23;20305;-72
2023/01/14 08:53:30;;;;;;;14.00;4.53;;;;;;;-145.18;100.00;46683.84;6155181;23;20001;-72
2023/01/14 08:55:59;;;;;;;18.47;4.83;;;;;;;-145.18;100.00;46676.03;6181346;23;20239;-72
2023/01/14 08:58:26;;;;;;;17.13;5.50;;;;;;;-145.18;100.00;46681.88;6155048;23;19997;-72
2023/01/14 09:00:56;;;;;;;17.90;4.93;;;;;;;-145.18;100.00;46681.88;6181147;23;20243;-72
2023/01/14 09:03:22;;;;;;;11.70;4.80;;;;;;;-145.18;100.00;46681.88;6181254;23;20819;-72
2023/01/14 09:05:47;;;;;;;17.93;4.80;;;;;;;-145.18;100.00;46676.03;6183595;23;20235;-72
2023/01/14 09:19:12;;;;;;;11.70;3.53;;;;;;;-145.18;100.00;46677.97;6183373;23;20326;-72
2023/01/14 09:21:38;;;;;;;9.87;3.27;;;;;;;-145.18;100.00;46677.97;6183523;23;20235;-71
2023/01/14 09:24:03;;;;;;;11.17;4.07;;;;;;;-145.18;100.00;46681.88;6182844;23;20092;-72
2023/01/14 09:26:28;;;;;;;8.73;3.00;;;;;;;-145.18;100.00;46683.84;6183210;23;20263;-71
2023/01/14 09:28:55;;;;;;;10.70;2.90;;;;;;;-145.18;100.00;46677.97;6182514;23;20009;-72
2023/01/14 09:31:20;;;;;;;10.60;3.27;;;;;;;-145.18;100.00;46681.88;6183063;23;20009;-71
2023/01/14 09:33:45;;;;;;;11.03;2.37;;;;;;;-145.18;100.00;46683.84;6183005;23;20250;-72
2023/01/14 09:36:11;;;;;;;15.47;3.67;;;;;;;-145.18;100.00;46679.94;6156794;23;20013;-71
2023/01/14 09:38:36;;;;;;;10.77;2.53;;;;;;;-145.18;100.00;46676.03;6182805;23;20016;-71
2023/01/14 09:41:01;;;;;;;14.23;4.27;;;;;;;-145.18;100.00;46676.03;6183041;23;20441;-71
2023/01/14 09:43:30;;;;;;;12.27;3.03;;;;;;;-145.18;100.00;46685.78;6183200;23;20024;-71
2023/01/14 09:46:01;;;;;;;10.40;3.13;;;;;;;-145.18;100.00;46681.88;6181953;23;20471;-71
2023/01/14 09:48:29;;;;;;;14.90;3.20;;;;;;;-145.18;100.00;46677.97;6181489;23;20604;-71
2023/01/14 09:51:12;;;;;;;13.90;2.87;;;;;;;-145.18;100.00;46679.94;6183037;23;20242;-71
2023/01/14 09:54:15;;;;;;;10.93;2.80;;;;;;;-145.18;100.00;46689.69;6182966;23;20227;-71
2023/01/14 09:57:12;;;;;;;10.73;2.77;;;;;;;-145.18;100.00;46683.84;6138411;23;20230;-71
2023/01/14 09:59:59;;;;;;;11.63;2.77;;;;;;;-145.18;100.00;46685.78;6182672;23;20688;-71
2023/01/14 10:02:40;;;;;;;14.30;2.50;;;;;;;-145.18;100.00;46677.97;6183008;23;20325;-71
2023/01/14 10:05:21;;;;;;;19.17;2.70;;;;;;;-145.18;100.00;46679.94;6183014;23;20215;-71
2023/01/14 10:07:48;;;;;;;14.90;2.07;;;;;;;-145.18;100.00;46681.88;6182978;23;20219;-71
2023/01/14 10:10:31;;;;;;;10.20;2.13;;;;;;;-145.18;100.00;46683.84;6182277;23;20668;-72
2023/01/14 10:13:01;;;;;;;9.03;1.80;;;;;;;-145.18;100.00;46681.88;6182520;23;20617;-71
2023/01/14 10:15:35;;;;;;;13.30;1.93;;;;;;;-145.18;100.00;46677.97;6182420;23;20230;-71
2023/01/14 10:18:13;;;;;;;13.73;2.50;;;;;;;-145.18;100.00;46679.94;6182381;23;20218;-71
2023/01/14 10:21:05;;;;;;;13.47;2.80;;;;;;;-145.18;100.00;46687.75;6182410;23;20254;-71
2023/01/14 10:23:40;;;;;;;10.30;2.03;;;;;;;-145.18;100.00;46683.84;6169284;23;20259;-71
2023/01/14 10:26:14;;;;;;;15.95;2.22;;;;;;;-145.18;100.00;46676.03;6182205;23;20289;-71
2023/01/14 10:28:41;;;;;;;8.27;1.90;;;;;;;-145.18;100.00;46681.88;6182727;23;20439;-71
2023/01/14 10:31:13;;;;;;;11.57;2.03;;;;;;;-145.18;100.00;46687.75;6182584;23;20261;-71
2023/01/14 10:33:39;;;;;;;12.30;1.73;;;;;;;-145.18;100.00;46677.97;6182515;23;20234;-71
2023/01/14 10:36:11;;;;;;;12.20;2.53;;;;;;;-145.18;100.00;46687.75;6182514;23;20223;-71
2023/01/14 10:38:40;;;;;;;10.93;1.90;;;;;;;-145.18;100.00;46679.94;6182394;23;20016;-71
2023/01/14 10:41:07;;;;;;;8.33;1.70;;;;;;;-145.18;100.00;46679.94;6182710;23;20597;-71
2023/01/14 10:43:39;;;;;;;6.13;1.43;;;;;;;-145.18;100.00;46685.78;6182616;23;20329;-71
2023/01/14 10:46:05;;;;;;;10.40;2.03;;;;;;;-145.18;100.00;46676.03;6182600;23;20556;-71
2023/01/14 10:48:47;;;;;;;11.97;3.43;;;;;;;-145.18;100.00;46691.66;6182530;23;20490;-71
2023/01/14 10:51:47;;;;;;;7.13;2.40;;;;;;;-145.18;100.00;46683.84;6182682;23;20247;-71
2023/01/14 10:54:25;;;;;;;7.63;1.33;;;;;;;-145.18;100.00;46681.88;6175970;23;20238;-71
2023/01/14 10:57:06;;;;;;;9.40;1.80;;;;;;;-145.18;100.00;46679.94;6182783;23;20269;-71
2023/01/14 10:59:38;;;;;;;5.20;1.30;;;;;;;-145.18;100.00;46674.06;6182449;23;20230;-71
2023/01/14 11:02:04;;;;;;;5.93;1.63;;;;;;;-145.18;100.00;46679.94;6182063;23;20719;-71
2023/01/14 11:04:32;;;;;;;5.47;1.53;;;;;;;-145.18;100.00;46679.94;6182450;23;20251;-71
2023/01/14 11:06:57;;;;;;;9.77;1.63;;;;;;;-145.18;100.00;46679.94;6182094;23;20296;-71
2023/01/14 11:09:28;;;;;;;6.70;1.40;;;;;;;-145.18;100.00;46679.94;6181311;23;20322;-71
2023/01/14 11:11:54;;;;;;;9.30;1.67;;;;;;;-145.18;100.00;46676.03;6180991;23;20076;-71
2023/01/14 11:14:37;;;;;;;6.47;1.53;;;;;;;-145.18;100.00;46674.06;6179386;23;20263;-71
2023/01/14 11:17:24;;;;;;;3.60;1.20;;;;;;;-145.18;100.00;46677.97;6179720;23;20247;-71
2023/01/14 11:19:50;;;;;;;2.63;1.30;;;;;;;-145.18;100.00;46679.94;6179865;23;20238;-71
2023/01/14 11:22:16;;;;;;;4.63;1.53;;;;;;;-145.18;100.00;46679.94;6180619;23;20238;-71
2023/01/14 11:24:52;;;;;;;5.17;1.23;;;;;;;-145.18;100.00;46679.94;6180491;23;20044;-71
2023/01/14 11:27:22;;;;;;;9.48;1.15;;;;;;;-145.18;100.00;46674.06;6180568;23;20230;-71
2023/01/14 11:29:53;;;;;;;7.10;1.73;;;;;;;-145.18;100.00;46679.94;6180407;23;20434;-71
2023/01/14 11:32:25;;;;;;;5.07;1.77;;;;;;;-145.18;100.00;46681.88;6181117;23;20592;-71
2023/01/14 11:34:55;;;;;;;5.23;1.50;;;;;;;-145.18;100.00;46676.03;6180579;23;20231;-71
2023/01/14 11:37:41;;;;;;;3.67;1.23;;;;;;;-145.18;100.00;46672.13;6181217;23;20227;-71
2023/01/14 11:43:15;;;;;;;3.03;1.07;;;;;;;-145.18;100.00;46679.94;6181061;23;20019;-71
2023/01/14 11:45:40;;;;;;;2.23;1.20;;;;;;;-145.18;100.00;46681.88;6180892;23;20286;-70